Terminal Aerodrome Forecast
Issued by NWS

Home | Current Version | Previous Version | Graphics & Text | Print | Product List | Glossary On
Versions: 1 2 3 4 5 6 7 8 9 10 11 12 13 14 15 16 17 18 19
000
FTUS43 KABR 031400 AAB
TAFPIR
TAF AMD
KPIR 031433Z 0315/0412 34021G32KT 1SM BLSN OVC060
     FM031500 33025G35KT 2SM BLSN OVC040
     FM032100 32017KT P6SM BKN040=

USA.gov is the U.S. government's official web portal to all federal, state and local government web resources and services.